Ana Sayfa
METAR-TAF:

METAR-TAF

Havaalanları :

Springbok, Güney Afrika

Enlem: 29-40S, Boylam: 17-53E, yükseklik: 1006 m

Güncel hava durumu gözlemi

Rapor saat 07:19 UTC de 15 dakika önce yapıldı.
Rüzgar doğu/kuzeydoğudan 11 kt
Sıcaklık 21°C
Nem 25%
Basınç 1023 hPa

METAR: FASB 150719Z AUTO 06011KT //// // ////// 21/M00 Q1023

Saat: 09:34 (07:34 UTC)


TAF: eksik

4.000'den fazla havaalanı için hava durumu gözlemleri ve tahminleri (METAR ve TAF raporları).

Kullanılabilir istasyonlar harita üzerinde sarı ve kırmızı noktalarla gösterilir.

İstasyonun adını görmek için fareyi noktanın üzerinde gezdirin.

Sonrasında hava gözlem ve tahminlerini görmek için tıklayın.

Haritayı değiştirmek için: yaklaştırmak için siyah artı işaretli yeşil düğmeye ve uzaklaştırmak için de eksi işaretli düğmeye hızla tıklayın; bitişik haritalar için yeşil okları kullanın.


METAR-TAF: